Flight Track Log - Related Links

Times and Time Zones

All times are in EDT time to prevent confusion due to time zone crossing. See the N534M flight status page for this flight to view local times or setup timezone preferences in your user account.

Time Position Orientation Groundspeed Altitude Reporting Facility
EDT Latitude Longitude Course Direction KTS MPH feet Rate Location/Type
Tue 08:33:04 AM 41.6833 -87.3500 14° North 184 212 5,600  Level Chicago TRACON
Tue 08:34:19 AM 41.7508 -87.2975 30° Northeast 236 272 5,900 701 Climbing Chicago Center
Tue 08:35:21 AM 41.7639 -87.1964 80° East 273 314 7,200 1,935 Climbing Chicago Center
Tue 08:36:23 AM 41.7731 -87.0986 83° East 222 255 9,900 1,366 Climbing Chicago Center
Tue 08:37:00 AM 41.7604 -86.9017 69° East  Level Estimated
Tue 08:37:24 AM 41.7833 -86.9967 82° East 272 313 10,000  Level Chicago Center
Tue 08:38:26 AM 41.7878 -86.8869 87° East 290 334 10,000  Level Chicago Center
Tue 08:39:28 AM 41.7958 -86.7778 84° East 296 341 10,000  Level Chicago Center
Tue 08:40:30 AM 41.8047 -86.6675 84° East 299 344 10,000 484 Level Chicago Center
Tue 08:41:32 AM 41.8111 -86.5594 85° East 295 339 11,000 488 Climbing Chicago Center
Tue 08:42:33 AM 41.8194 -86.4564 84° East 282 325 11,000  Level Chicago Center
Tue 08:43:35 AM 41.8297 -86.3250 84° East 292 336 11,000  Level Chicago Center
Tue 08:44:37 AM 41.8372 -86.2136 85° East 299 344 11,000  Level Chicago Center
Tue 08:45:39 AM 41.8453 -86.1031 84° East 299 344 11,000  Level Chicago Center
Tue 08:46:41 AM 41.8528 -85.9911 85° East 301 346 11,000  Level Chicago Center
Tue 08:47:43 AM 41.8589 -85.8856 86° East 287 330 11,000  Level Chicago Center
Tue 08:48:45 AM 41.8672 -85.7717 84° East 303 349 11,000  Level Chicago Center
Tue 08:49:46 AM 41.8756 -85.6578 84° East 305 351 11,000  Level Chicago Center
Tue 08:50:48 AM 41.8767 -85.5217 89° East 306 352 11,000  Level Chicago Center
Tue 08:51:50 AM 41.8642 -85.4106 99° East 299 344 11,000  Level Chicago Center
Tue 08:52:52 AM 41.8506 -85.3003 99° East 298 343 11,000  Level Chicago Center
Tue 08:53:53 AM 41.8594 -85.1889 84° East 309 356 11,000 -49 Level Chicago Center
Tue 08:54:55 AM 41.8717 -85.0769 82° East 304 350 10,900 -48 Descending Chicago Center
Tue 08:55:57 AM 41.8836 -84.9664 82° East 300 345 10,900  Level Chicago Center
Tue 08:56:59 AM 41.8961 -84.8561 81° East 298 343 10,900  Level Chicago Center
Tue 08:58:01 AM 41.9078 -84.7464 82° East 298 343 10,900 -49 Level Chicago Center
Tue 08:59:02 AM 41.9217 -84.6142 82° East 298 343 10,800 -439 Descending Chicago Center
Tue 09:00:04 AM 41.9331 -84.5031 82° East 301 346 10,000 -702 Descending Chicago Center
Tue 09:00:36 AM 41.9408 -84.4442 80° East 304 350 9,700 -646 Descending Cleveland Center
Tue 09:01:09 AM 41.9467 -84.3914 82° East 291 335 9,300 -987 Descending Cleveland Center
Tue 09:01:55 AM 41.9542 -84.2942 84° East 304 350 8,400 -884 Descending Cleveland Center
Tue 09:02:44 AM 41.9631 -84.2136 82° East 284 327 7,900 -730 Descending Cleveland Center
Tue 09:03:09 AM 41.9686 -84.1636 81° East 291 335 7,500 -885 Descending Cleveland Center
Tue 09:03:45 AM 42.0014 -84.1153 48° Northeast 300 345 7,000 -500 Descending Cleveland Center
Tue 09:04:09 AM 42.0253 -84.0886 40° Northeast 276 318 7,000 -269 Level Cleveland Center
Tue 09:04:52 AM 42.0764 -84.0550 26° Northeast 283 326 6,700 -700 Descending Cleveland Center
Tue 09:05:09 AM 42.0953 -84.0450 21° North 261 300 6,300 -1,325 Descending Cleveland Center
Tue 09:06:09 AM 42.1733 -84.0183 14° North 266 306 5,000 -1,273 Descending Cleveland Center
Tue 09:06:48 AM 42.2217 -84.0042 12° North 277 319 4,200 -1,000 Descending Cleveland Center
Tue 09:07:09 AM 42.2469 -83.9914 21° North 272 313 4,000 -164 Descending Cleveland Center
Tue 09:08:01 AM 42.3047 -83.9467 30° Northeast 278 320 4,000 -56 Level Cleveland Center
Tue 09:08:56 AM 42.3464 -83.8703 54° Northeast 277 319 3,900 -522 Descending Cleveland Center
Tue 09:09:56 AM 42.3947 -83.7914 50° Northeast 270 311 3,000 -443 Descending Cleveland Center
Tue 09:10:58 AM 42.4425 -83.7150 50° Northeast 280 322 3,000  Level Cleveland Center
Tue 09:12:04 AM 42.4994 -83.6192 51° Northeast 276 318 3,000  Level Cleveland Center
Tue 09:12:53 AM 42.5406 -83.5564 48° Northeast 277 319 3,000  Level Cleveland Center
Tue 09:14:06 AM 42.5994 -83.4603 50° Northeast 283 326 3,000 -386 Level Cleveland Center
Tue 09:15:13 AM 42.6447 -83.3947 47° Northeast 206 237 2,100 -806 Descending Cleveland Center

Login

Don't have an account? Register now (free) for customized features, flight alerts, and more!